sensor_id;sensor_type;location;lat;lon;timestamp;temperature;humidity
9939;DHT22;5008;50.656;7.188;2023-08-24T04:02:19;18.40;99.90
9939;DHT22;5008;50.656;7.188;2023-08-24T04:04:46;18.50;99.90
9939;DHT22;5008;50.656;7.188;2023-08-24T04:07:13;18.50;99.90
9939;DHT22;5008;50.656;7.188;2023-08-24T04:09:40;18.60;99.90
9939;DHT22;5008;50.656;7.188;2023-08-24T04:12:08;18.50;99.90
9939;DHT22;5008;50.656;7.188;2023-08-24T04:14:34;18.60;99.90
9939;DHT22;5008;50.656;7.188;2023-08-24T04:17:01;18.60;99.90
9939;DHT22;5008;50.656;7.188;2023-08-24T04:19:30;18.70;99.90
9939;DHT22;5008;50.656;7.188;2023-08-24T04:21:57;18.70;99.90
9939;DHT22;5008;50.656;7.188;2023-08-24T04:24:23;18.80;99.90
9939;DHT22;5008;50.656;7.188;2023-08-24T04:26:51;18.80;99.90
9939;DHT22;5008;50.656;7.188;2023-08-24T04:29:18;18.80;99.90
9939;DHT22;5008;50.656;7.188;2023-08-24T04:31:44;18.90;99.90
9939;DHT22;5008;50.656;7.188;2023-08-24T04:34:11;18.80;99.90
9939;DHT22;5008;50.656;7.188;2023-08-24T04:36:39;18.80;99.90
9939;DHT22;5008;50.656;7.188;2023-08-24T04:39:06;18.80;99.90
9939;DHT22;5008;50.656;7.188;2023-08-24T04:41:33;18.80;99.90
9939;DHT22;5008;50.656;7.188;2023-08-24T04:44:00;18.80;99.90
9939;DHT22;5008;50.656;7.188;2023-08-24T04:46:27;18.80;99.90
9939;DHT22;5008;50.656;7.188;2023-08-24T04:48:53;18.80;99.90
9939;DHT22;5008;50.656;7.188;2023-08-24T04:51:20;18.80;99.90
9939;DHT22;5008;50.656;7.188;2023-08-24T04:53:48;18.90;99.90
9939;DHT22;5008;50.656;7.188;2023-08-24T04:56:15;18.90;99.90
9939;DHT22;5008;50.656;7.188;2023-08-24T04:58:52;18.90;99.90
9939;DHT22;5008;50.656;7.188;2023-08-24T05:01:20;18.90;99.90
9939;DHT22;5008;50.656;7.188;2023-08-24T05:03:47;18.90;99.90
9939;DHT22;5008;50.656;7.188;2023-08-24T05:06:14;18.90;99.90
9939;DHT22;5008;50.656;7.188;2023-08-24T05:08:41;18.90;99.90
9939;DHT22;5008;50.656;7.188;2023-08-24T05:11:13;19.00;99.90
9939;DHT22;5008;50.656;7.188;2023-08-24T05:13:40;18.90;99.90
9939;DHT22;5008;50.656;7.188;2023-08-24T05:16:07;19.00;99.90
9939;DHT22;5008;50.656;7.188;2023-08-24T05:18:34;19.00;99.90
9939;DHT22;5008;50.656;7.188;2023-08-24T05:21:02;18.90;99.90
9939;DHT22;5008;50.656;7.188;2023-08-24T05:23:29;18.80;99.90
9939;DHT22;5008;50.656;7.188;2023-08-24T05:25:56;18.80;99.90
9939;DHT22;5008;50.656;7.188;2023-08-24T05:28:25;18.80;99.90
9939;DHT22;5008;50.656;7.188;2023-08-24T05:30:52;18.80;99.90
9939;DHT22;5008;50.656;7.188;2023-08-24T05:33:20;18.80;99.90
9939;DHT22;5008;50.656;7.188;2023-08-24T05:35:48;18.80;99.90
9939;DHT22;5008;50.656;7.188;2023-08-24T05:38:15;18.80;99.90
9939;DHT22;5008;50.656;7.188;2023-08-24T05:40:42;18.90;99.90
9939;DHT22;5008;50.656;7.188;2023-08-24T05:43:09;19.00;99.90
9939;DHT22;5008;50.656;7.188;2023-08-24T05:45:37;19.00;99.90
9939;DHT22;5008;50.656;7.188;2023-08-24T05:48:05;18.90;99.90
9939;DHT22;5008;50.656;7.188;2023-08-24T05:50:33;18.90;99.90
9939;DHT22;5008;50.656;7.188;2023-08-24T05:52:59;18.90;99.90
9939;DHT22;5008;50.656;7.188;2023-08-24T05:55:26;19.00;99.90
9939;DHT22;5008;50.656;7.188;2023-08-24T05:57:53;19.00;99.90
9939;DHT22;5008;50.656;7.188;2023-08-24T06:00:20;19.00;99.90
9939;DHT22;5008;50.656;7.188;2023-08-24T06:02:49;19.10;99.90
9939;DHT22;5008;50.656;7.188;2023-08-24T06:05:16;19.10;99.90
9939;DHT22;5008;50.656;7.188;2023-08-24T06:07:44;19.10;99.90
9939;DHT22;5008;50.656;7.188;2023-08-24T06:10:11;19.10;99.90
9939;DHT22;5008;50.656;7.188;2023-08-24T06:12:38;19.20;99.90
9939;DHT22;5008;50.656;7.188;2023-08-24T06:15:06;19.30;99.90
9939;DHT22;5008;50.656;7.188;2023-08-24T06:17:35;19.30;99.90
9939;DHT22;5008;50.656;7.188;2023-08-24T06:20:03;19.30;99.90
9939;DHT22;5008;50.656;7.188;2023-08-24T06:22:30;19.30;99.90
9939;DHT22;5008;50.656;7.188;2023-08-24T06:24:57;19.30;99.90
9939;DHT22;5008;50.656;7.188;2023-08-24T06:27:25;19.30;99.90
9939;DHT22;5008;50.656;7.188;2023-08-24T06:29:52;19.30;99.90
9939;DHT22;5008;50.656;7.188;2023-08-24T06:32:19;19.30;99.90
9939;DHT22;5008;50.656;7.188;2023-08-24T06:34:45;19.30;99.90
9939;DHT22;5008;50.656;7.188;2023-08-24T06:37:14;19.40;99.90
9939;DHT22;5008;50.656;7.188;2023-08-24T06:39:40;19.40;99.90
9939;DHT22;5008;50.656;7.188;2023-08-24T06:42:07;19.40;99.90
9939;DHT22;5008;50.656;7.188;2023-08-24T06:44:34;19.50;99.90
9939;DHT22;5008;50.656;7.188;2023-08-24T06:47:01;19.60;99.90
9939;DHT22;5008;50.656;7.188;2023-08-24T06:49:28;19.70;99.90
9939;DHT22;5008;50.656;7.188;2023-08-24T06:51:55;19.90;99.90
9939;DHT22;5008;50.656;7.188;2023-08-24T06:54:23;20.00;99.90
9939;DHT22;5008;50.656;7.188;2023-08-24T06:56:50;20.00;99.90
9939;DHT22;5008;50.656;7.188;2023-08-24T06:59:17;20.00;99.90
9939;DHT22;5008;50.656;7.188;2023-08-24T07:01:44;20.10;99.90
9939;DHT22;5008;50.656;7.188;2023-08-24T07:04:12;20.20;99.90
9939;DHT22;5008;50.656;7.188;2023-08-24T07:06:39;20.20;99.90
9939;DHT22;5008;50.656;7.188;2023-08-24T07:09:08;20.30;99.90
9939;DHT22;5008;50.656;7.188;2023-08-24T07:11:36;20.40;99.90
9939;DHT22;5008;50.656;7.188;2023-08-24T07:14:03;20.40;99.90
9939;DHT22;5008;50.656;7.188;2023-08-24T07:16:30;20.50;99.90
9939;DHT22;5008;50.656;7.188;2023-08-24T07:18:57;20.50;99.90
9939;DHT22;5008;50.656;7.188;2023-08-24T07:21:24;20.60;99.90
9939;DHT22;5008;50.656;7.188;2023-08-24T07:23:51;20.60;99.90
9939;DHT22;5008;50.656;7.188;2023-08-24T07:26:18;20.70;99.90
9939;DHT22;5008;50.656;7.188;2023-08-24T07:28:46;20.70;99.90
9939;DHT22;5008;50.656;7.188;2023-08-24T07:31:13;20.80;99.90
9939;DHT22;5008;50.656;7.188;2023-08-24T07:33:40;20.90;99.90
9939;DHT22;5008;50.656;7.188;2023-08-24T07:36:09;21.00;99.90
9939;DHT22;5008;50.656;7.188;2023-08-24T07:38:36;21.00;99.90
9939;DHT22;5008;50.656;7.188;2023-08-24T07:41:03;21.10;99.90
9939;DHT22;5008;50.656;7.188;2023-08-24T07:43:29;21.20;99.90
9939;DHT22;5008;50.656;7.188;2023-08-24T07:45:58;21.30;99.90
9939;DHT22;5008;50.656;7.188;2023-08-24T07:48:25;21.40;99.90
9939;DHT22;5008;50.656;7.188;2023-08-24T07:50:52;21.50;99.90
9939;DHT22;5008;50.656;7.188;2023-08-24T07:53:19;21.50;99.90
9939;DHT22;5008;50.656;7.188;2023-08-24T07:55:46;21.50;99.90
9939;DHT22;5008;50.656;7.188;2023-08-24T07:58:13;21.60;99.90
9939;DHT22;5008;50.656;7.188;2023-08-24T08:00:40;21.70;99.90
9939;DHT22;5008;50.656;7.188;2023-08-24T08:03:08;21.80;99.90
9939;DHT22;5008;50.656;7.188;2023-08-24T08:05:35;21.80;99.90
9939;DHT22;5008;50.656;7.188;2023-08-24T08:08:03;21.90;99.90
9939;DHT22;5008;50.656;7.188;2023-08-24T08:10:30;22.00;99.90
9939;DHT22;5008;50.656;7.188;2023-08-24T08:12:57;22.00;99.90
9939;DHT22;5008;50.656;7.188;2023-08-24T08:15:24;22.10;99.90
9939;DHT22;5008;50.656;7.188;2023-08-24T08:17:51;22.10;99.90
9939;DHT22;5008;50.656;7.188;2023-08-24T08:20:19;22.30;99.90
9939;DHT22;5008;50.656;7.188;2023-08-24T08:22:46;22.40;99.90
9939;DHT22;5008;50.656;7.188;2023-08-24T08:25:13;22.50;99.90
9939;DHT22;5008;50.656;7.188;2023-08-24T08:27:43;22.60;99.90
9939;DHT22;5008;50.656;7.188;2023-08-24T08:30:11;22.60;99.90
9939;DHT22;5008;50.656;7.188;2023-08-24T08:32:38;22.50;99.90
9939;DHT22;5008;50.656;7.188;2023-08-24T08:35:05;22.70;99.90
9939;DHT22;5008;50.656;7.188;2023-08-24T08:37:34;22.80;99.90
9939;DHT22;5008;50.656;7.188;2023-08-24T08:40:02;22.80;99.90
9939;DHT22;5008;50.656;7.188;2023-08-24T08:42:31;22.90;99.90
9939;DHT22;5008;50.656;7.188;2023-08-24T08:44:59;22.90;99.90
9939;DHT22;5008;50.656;7.188;2023-08-24T08:47:28;22.90;99.90
9939;DHT22;5008;50.656;7.188;2023-08-24T08:49:55;22.90;99.90
9939;DHT22;5008;50.656;7.188;2023-08-24T08:52:22;22.90;99.90
9939;DHT22;5008;50.656;7.188;2023-08-24T08:54:52;23.00;99.90
9939;DHT22;5008;50.656;7.188;2023-08-24T08:57:19;23.10;99.90
9939;DHT22;5008;50.656;7.188;2023-08-24T08:59:48;23.20;99.90
9939;DHT22;5008;50.656;7.188;2023-08-24T09:02:19;23.20;99.90
9939;DHT22;5008;50.656;7.188;2023-08-24T09:04:47;23.10;99.90
9939;DHT22;5008;50.656;7.188;2023-08-24T09:07:15;23.20;99.90
9939;DHT22;5008;50.656;7.188;2023-08-24T09:09:42;23.40;99.90
9939;DHT22;5008;50.656;7.188;2023-08-24T09:12:10;23.50;99.90
9939;DHT22;5008;50.656;7.188;2023-08-24T09:14:37;23.60;99.90
9939;DHT22;5008;50.656;7.188;2023-08-24T09:17:05;23.60;99.90
9939;DHT22;5008;50.656;7.188;2023-08-24T09:19:33;23.50;99.90
9939;DHT22;5008;50.656;7.188;2023-08-24T09:22:04;23.60;99.90
9939;DHT22;5008;50.656;7.188;2023-08-24T09:24:31;23.70;99.90
9939;DHT22;5008;50.656;7.188;2023-08-24T09:26:58;23.70;99.90
9939;DHT22;5008;50.656;7.188;2023-08-24T09:29:26;23.70;99.90
9939;DHT22;5008;50.656;7.188;2023-08-24T09:31:54;23.80;99.90
9939;DHT22;5008;50.656;7.188;2023-08-24T09:34:22;23.80;99.90
9939;DHT22;5008;50.656;7.188;2023-08-24T09:36:52;23.80;99.90
9939;DHT22;5008;50.656;7.188;2023-08-24T09:39:19;23.90;99.90
9939;DHT22;5008;50.656;7.188;2023-08-24T09:41:48;24.00;99.90
9939;DHT22;5008;50.656;7.188;2023-08-24T09:44:16;24.00;99.90
9939;DHT22;5008;50.656;7.188;2023-08-24T09:46:45;24.10;99.90
9939;DHT22;5008;50.656;7.188;2023-08-24T09:49:12;24.10;99.90
9939;DHT22;5008;50.656;7.188;2023-08-24T09:51:40;24.20;99.90
9939;DHT22;5008;50.656;7.188;2023-08-24T09:54:08;24.50;99.90
9939;DHT22;5008;50.656;7.188;2023-08-24T09:56:36;24.50;99.90
9939;DHT22;5008;50.656;7.188;2023-08-24T09:59:10;24.60;99.90
9939;DHT22;5008;50.656;7.188;2023-08-24T10:01:38;24.50;99.90
9939;DHT22;5008;50.656;7.188;2023-08-24T10:04:07;24.40;99.90
9939;DHT22;5008;50.656;7.188;2023-08-24T10:06:36;24.50;99.90
9939;DHT22;5008;50.656;7.188;2023-08-24T10:09:06;24.60;99.90
9939;DHT22;5008;50.656;7.188;2023-08-24T10:11:36;24.70;99.90
9939;DHT22;5008;50.656;7.188;2023-08-24T10:14:12;24.60;99.90
9939;DHT22;5008;50.656;7.188;2023-08-24T10:16:41;24.70;99.90
9939;DHT22;5008;50.656;7.188;2023-08-24T10:19:12;24.70;99.90
9939;DHT22;5008;50.656;7.188;2023-08-24T10:21:39;24.70;99.90
9939;DHT22;5008;50.656;7.188;2023-08-24T10:24:08;24.70;99.90
9939;DHT22;5008;50.656;7.188;2023-08-24T10:26:36;24.80;99.90
9939;DHT22;5008;50.656;7.188;2023-08-24T10:29:05;24.70;99.90
9939;DHT22;5008;50.656;7.188;2023-08-24T10:31:33;24.70;99.90
9939;DHT22;5008;50.656;7.188;2023-08-24T10:34:01;24.80;99.90
9939;DHT22;5008;50.656;7.188;2023-08-24T10:36:30;24.70;99.90
9939;DHT22;5008;50.656;7.188;2023-08-24T10:39:02;24.70;99.90
9939;DHT22;5008;50.656;7.188;2023-08-24T10:41:46;24.70;99.90
9939;DHT22;5008;50.656;7.188;2023-08-24T10:44:20;24.70;99.90
9939;DHT22;5008;50.656;7.188;2023-08-24T10:47:05;24.80;99.90
9939;DHT22;5008;50.656;7.188;2023-08-24T10:49:32;24.80;99.90
9939;DHT22;5008;50.656;7.188;2023-08-24T10:52:16;24.80;99.90
9939;DHT22;5008;50.656;7.188;2023-08-24T10:54:44;24.80;99.90
9939;DHT22;5008;50.656;7.188;2023-08-24T10:57:18;24.80;99.90
9939;DHT22;5008;50.656;7.188;2023-08-24T10:59:45;24.80;99.90
9939;DHT22;5008;50.656;7.188;2023-08-24T11:02:19;24.80;99.90
9939;DHT22;5008;50.656;7.188;2023-08-24T11:05:03;24.80;99.90
9939;DHT22;5008;50.656;7.188;2023-08-24T11:07:32;24.70;99.90
9939;DHT22;5008;50.656;7.188;2023-08-24T11:09:59;24.70;99.90
9939;DHT22;5008;50.656;7.188;2023-08-24T11:12:26;24.70;99.90
9939;DHT22;5008;50.656;7.188;2023-08-24T11:14:53;24.80;99.90
9939;DHT22;5008;50.656;7.188;2023-08-24T11:17:24;24.80;99.90
9939;DHT22;5008;50.656;7.188;2023-08-24T11:19:52;24.80;99.90
9939;DHT22;5008;50.656;7.188;2023-08-24T11:22:19;24.80;99.90
9939;DHT22;5008;50.656;7.188;2023-08-24T11:24:48;24.90;99.90
9939;DHT22;5008;50.656;7.188;2023-08-24T11:27:14;24.90;99.90
9939;DHT22;5008;50.656;7.188;2023-08-24T11:29:42;24.90;99.90
9939;DHT22;5008;50.656;7.188;2023-08-24T11:32:08;24.90;99.90
9939;DHT22;5008;50.656;7.188;2023-08-24T11:34:35;25.00;99.90
9939;DHT22;5008;50.656;7.188;2023-08-24T11:37:04;25.20;99.90
9939;DHT22;5008;50.656;7.188;2023-08-24T11:39:31;25.30;99.90
9939;DHT22;5008;50.656;7.188;2023-08-24T11:42:00;25.30;99.90
9939;DHT22;5008;50.656;7.188;2023-08-24T11:44:28;25.20;99.90
9939;DHT22;5008;50.656;7.188;2023-08-24T11:46:56;25.20;99.90
9939;DHT22;5008;50.656;7.188;2023-08-24T11:49:24;25.20;99.90
9939;DHT22;5008;50.656;7.188;2023-08-24T11:51:51;25.10;99.90
9939;DHT22;5008;50.656;7.188;2023-08-24T11:54:19;25.10;99.90
9939;DHT22;5008;50.656;7.188;2023-08-24T11:56:46;25.20;99.90
9939;DHT22;5008;50.656;7.188;2023-08-24T11:59:15;25.20;99.90
9939;DHT22;5008;50.656;7.188;2023-08-24T12:01:43;25.40;99.90
9939;DHT22;5008;50.656;7.188;2023-08-24T12:04:09;25.40;99.90
9939;DHT22;5008;50.656;7.188;2023-08-24T12:06:37;25.40;99.90
9939;DHT22;5008;50.656;7.188;2023-08-24T12:09:06;25.30;99.90
9939;DHT22;5008;50.656;7.188;2023-08-24T12:11:35;25.30;99.90
9939;DHT22;5008;50.656;7.188;2023-08-24T12:14:03;25.20;99.90
9939;DHT22;5008;50.656;7.188;2023-08-24T12:16:33;25.10;99.90
9939;DHT22;5008;50.656;7.188;2023-08-24T12:19:00;25.00;99.90
9939;DHT22;5008;50.656;7.188;2023-08-24T12:21:30;25.10;99.90
9939;DHT22;5008;50.656;7.188;2023-08-24T12:23:58;25.10;99.90
9939;DHT22;5008;50.656;7.188;2023-08-24T12:26:25;25.10;99.90
9939;DHT22;5008;50.656;7.188;2023-08-24T12:28:53;25.10;99.90
9939;DHT22;5008;50.656;7.188;2023-08-24T12:31:20;25.10;99.90
9939;DHT22;5008;50.656;7.188;2023-08-24T12:33:59;25.10;99.90
9939;DHT22;5008;50.656;7.188;2023-08-24T12:36:26;25.00;99.90
9939;DHT22;5008;50.656;7.188;2023-08-24T12:38:53;24.90;99.90
9939;DHT22;5008;50.656;7.188;2023-08-24T12:41:20;24.90;99.90
9939;DHT22;5008;50.656;7.188;2023-08-24T12:43:47;24.70;99.90
9939;DHT22;5008;50.656;7.188;2023-08-24T12:46:13;24.50;99.90
9939;DHT22;5008;50.656;7.188;2023-08-24T12:48:40;24.40;99.90
9939;DHT22;5008;50.656;7.188;2023-08-24T12:51:08;24.30;99.90
9939;DHT22;5008;50.656;7.188;2023-08-24T12:53:35;24.20;99.90
9939;DHT22;5008;50.656;7.188;2023-08-24T12:56:02;24.20;99.90
9939;DHT22;5008;50.656;7.188;2023-08-24T12:58:29;24.20;99.90
9939;DHT22;5008;50.656;7.188;2023-08-24T13:00:56;24.10;99.90
9939;DHT22;5008;50.656;7.188;2023-08-24T13:03:23;24.20;99.90
9939;DHT22;5008;50.656;7.188;2023-08-24T13:05:50;24.20;99.90
9939;DHT22;5008;50.656;7.188;2023-08-24T13:08:18;24.20;99.90
9939;DHT22;5008;50.656;7.188;2023-08-24T13:10:45;24.10;99.90
9939;DHT22;5008;50.656;7.188;2023-08-24T13:13:11;24.10;99.90
9939;DHT22;5008;50.656;7.188;2023-08-24T13:15:38;24.00;99.90
9939;DHT22;5008;50.656;7.188;2023-08-24T13:18:05;24.00;99.90
9939;DHT22;5008;50.656;7.188;2023-08-24T13:20:32;23.80;99.90
9939;DHT22;5008;50.656;7.188;2023-08-24T13:22:59;23.70;99.90
9939;DHT22;5008;50.656;7.188;2023-08-24T13:25:27;23.50;99.90
9939;DHT22;5008;50.656;7.188;2023-08-24T13:27:54;23.60;99.90
9939;DHT22;5008;50.656;7.188;2023-08-24T13:30:21;23.50;99.90
9939;DHT22;5008;50.656;7.188;2023-08-24T13:32:48;23.40;99.90
9939;DHT22;5008;50.656;7.188;2023-08-24T13:35:15;23.20;99.90
9939;DHT22;5008;50.656;7.188;2023-08-24T13:37:42;23.10;99.90
9939;DHT22;5008;50.656;7.188;2023-08-24T13:40:09;23.20;99.90
9939;DHT22;5008;50.656;7.188;2023-08-24T13:42:39;23.10;99.90
9939;DHT22;5008;50.656;7.188;2023-08-24T13:45:06;23.00;99.90
9939;DHT22;5008;50.656;7.188;2023-08-24T13:47:33;22.90;99.90
9939;DHT22;5008;50.656;7.188;2023-08-24T13:50:00;22.90;99.90
9939;DHT22;5008;50.656;7.188;2023-08-24T13:52:27;22.80;99.90
9939;DHT22;5008;50.656;7.188;2023-08-24T13:54:53;22.80;99.90
9939;DHT22;5008;50.656;7.188;2023-08-24T13:57:20;22.80;99.90
9939;DHT22;5008;50.656;7.188;2023-08-24T13:59:49;22.80;99.90
9939;DHT22;5008;50.656;7.188;2023-08-24T14:02:15;22.90;99.90
9939;DHT22;5008;50.656;7.188;2023-08-24T14:04:42;22.80;99.90
9939;DHT22;5008;50.656;7.188;2023-08-24T14:07:09;22.90;99.90
9939;DHT22;5008;50.656;7.188;2023-08-24T14:09:36;22.90;99.90
9939;DHT22;5008;50.656;7.188;2023-08-24T14:12:03;22.80;99.90
9939;DHT22;5008;50.656;7.188;2023-08-24T14:14:30;22.80;99.90
9939;DHT22;5008;50.656;7.188;2023-08-24T14:17:00;22.80;99.90
9939;DHT22;5008;50.656;7.188;2023-08-24T14:19:27;22.90;99.90
9939;DHT22;5008;50.656;7.188;2023-08-24T14:21:54;22.90;99.90
9939;DHT22;5008;50.656;7.188;2023-08-24T14:24:21;22.90;99.90
9939;DHT22;5008;50.656;7.188;2023-08-24T14:26:48;22.90;99.90
9939;DHT22;5008;50.656;7.188;2023-08-24T14:29:15;22.80;99.90
9939;DHT22;5008;50.656;7.188;2023-08-24T14:31:42;22.70;99.90
9939;DHT22;5008;50.656;7.188;2023-08-24T14:34:10;22.70;99.90
9939;DHT22;5008;50.656;7.188;2023-08-24T14:36:37;22.70;99.90
9939;DHT22;5008;50.656;7.188;2023-08-24T14:39:04;22.80;99.90
9939;DHT22;5008;50.656;7.188;2023-08-24T14:41:31;22.80;99.90
9939;DHT22;5008;50.656;7.188;2023-08-24T14:43:58;22.70;99.90
9939;DHT22;5008;50.656;7.188;2023-08-24T14:46:24;22.70;99.90
9939;DHT22;5008;50.656;7.188;2023-08-24T14:48:51;22.70;99.90
9939;DHT22;5008;50.656;7.188;2023-08-24T14:51:19;22.70;99.90
9939;DHT22;5008;50.656;7.188;2023-08-24T14:53:46;22.70;99.90
9939;DHT22;5008;50.656;7.188;2023-08-24T14:56:13;22.70;99.90
9939;DHT22;5008;50.656;7.188;2023-08-24T14:58:40;22.60;99.90
9939;DHT22;5008;50.656;7.188;2023-08-24T15:01:07;22.60;99.90
9939;DHT22;5008;50.656;7.188;2023-08-24T15:03:34;22.60;99.90
9939;DHT22;5008;50.656;7.188;2023-08-24T15:06:02;22.60;99.90
9939;DHT22;5008;50.656;7.188;2023-08-24T15:08:32;22.60;99.90
9939;DHT22;5008;50.656;7.188;2023-08-24T15:11:00;22.60;99.90
9939;DHT22;5008;50.656;7.188;2023-08-24T15:13:29;22.50;99.90
9939;DHT22;5008;50.656;7.188;2023-08-24T15:15:57;22.50;99.90
9939;DHT22;5008;50.656;7.188;2023-08-24T15:18:26;22.40;99.90
9939;DHT22;5008;50.656;7.188;2023-08-24T15:20:53;22.40;99.90
9939;DHT22;5008;50.656;7.188;2023-08-24T15:23:21;22.40;99.90
9939;DHT22;5008;50.656;7.188;2023-08-24T15:25:49;22.40;99.90
9939;DHT22;5008;50.656;7.188;2023-08-24T15:28:16;22.30;99.90
9939;DHT22;5008;50.656;7.188;2023-08-24T15:30:43;22.30;99.90
9939;DHT22;5008;50.656;7.188;2023-08-24T15:33:10;22.30;99.90
9939;DHT22;5008;50.656;7.188;2023-08-24T15:35:37;22.20;99.90
9939;DHT22;5008;50.656;7.188;2023-08-24T15:38:05;22.20;99.90
9939;DHT22;5008;50.656;7.188;2023-08-24T15:40:32;22.20;99.90
9939;DHT22;5008;50.656;7.188;2023-08-24T15:43:01;22.20;99.90
9939;DHT22;5008;50.656;7.188;2023-08-24T15:45:29;22.10;99.90
9939;DHT22;5008;50.656;7.188;2023-08-24T15:47:56;22.00;99.90
9939;DHT22;5008;50.656;7.188;2023-08-24T15:50:23;21.90;99.90
9939;DHT22;5008;50.656;7.188;2023-08-24T15:52:49;21.90;99.90
9939;DHT22;5008;50.656;7.188;2023-08-24T15:55:17;21.90;99.90
9939;DHT22;5008;50.656;7.188;2023-08-24T15:57:44;21.80;99.90
9939;DHT22;5008;50.656;7.188;2023-08-24T16:00:14;21.80;99.90
9939;DHT22;5008;50.656;7.188;2023-08-24T16:02:40;21.70;99.90
9939;DHT22;5008;50.656;7.188;2023-08-24T16:05:08;21.70;99.90
9939;DHT22;5008;50.656;7.188;2023-08-24T16:07:35;21.60;99.90
9939;DHT22;5008;50.656;7.188;2023-08-24T16:10:02;21.60;99.90
9939;DHT22;5008;50.656;7.188;2023-08-24T16:12:30;21.50;99.90
9939;DHT22;5008;50.656;7.188;2023-08-24T16:17:27;21.40;99.90
9939;DHT22;5008;50.656;7.188;2023-08-24T16:19:54;21.40;99.90
9939;DHT22;5008;50.656;7.188;2023-08-24T16:22:20;21.40;99.90
9939;DHT22;5008;50.656;7.188;2023-08-24T16:24:47;21.40;99.90
9939;DHT22;5008;50.656;7.188;2023-08-24T16:27:14;21.40;99.90
9939;DHT22;5008;50.656;7.188;2023-08-24T16:29:41;21.40;99.90
9939;DHT22;5008;50.656;7.188;2023-08-24T16:32:08;21.40;99.90
9939;DHT22;5008;50.656;7.188;2023-08-24T16:34:36;21.50;99.90
9939;DHT22;5008;50.656;7.188;2023-08-24T16:37:02;21.40;99.90
9939;DHT22;5008;50.656;7.188;2023-08-24T16:39:29;21.40;99.90
9939;DHT22;5008;50.656;7.188;2023-08-24T16:41:56;21.40;99.90
9939;DHT22;5008;50.656;7.188;2023-08-24T16:44:23;21.40;99.90
9939;DHT22;5008;50.656;7.188;2023-08-24T16:46:50;21.40;99.90
9939;DHT22;5008;50.656;7.188;2023-08-24T16:49:17;21.40;99.90
9939;DHT22;5008;50.656;7.188;2023-08-24T16:51:48;21.30;99.90
9939;DHT22;5008;50.656;7.188;2023-08-24T16:54:18;21.30;99.90
9939;DHT22;5008;50.656;7.188;2023-08-24T16:56:45;21.30;99.90
9939;DHT22;5008;50.656;7.188;2023-08-24T16:59:11;21.20;99.90
9939;DHT22;5008;50.656;7.188;2023-08-24T17:01:38;21.30;99.90
9939;DHT22;5008;50.656;7.188;2023-08-24T17:04:05;21.20;99.90
9939;DHT22;5008;50.656;7.188;2023-08-24T17:06:32;21.20;99.90
9939;DHT22;5008;50.656;7.188;2023-08-24T17:09:00;21.20;99.90
9939;DHT22;5008;50.656;7.188;2023-08-24T17:11:27;21.20;99.90
9939;DHT22;5008;50.656;7.188;2023-08-24T17:13:54;21.20;99.90
9939;DHT22;5008;50.656;7.188;2023-08-24T17:16:21;21.20;99.90
9939;DHT22;5008;50.656;7.188;2023-08-24T17:18:48;21.20;99.90
9939;DHT22;5008;50.656;7.188;2023-08-24T17:21:15;21.20;99.90
9939;DHT22;5008;50.656;7.188;2023-08-24T17:23:42;21.20;99.90
9939;DHT22;5008;50.656;7.188;2023-08-24T17:26:10;21.20;99.90
9939;DHT22;5008;50.656;7.188;2023-08-24T17:28:37;21.20;99.90
9939;DHT22;5008;50.656;7.188;2023-08-24T17:31:04;21.20;99.90
9939;DHT22;5008;50.656;7.188;2023-08-24T17:33:31;21.20;99.90
9939;DHT22;5008;50.656;7.188;2023-08-24T17:35:59;21.10;99.90
9939;DHT22;5008;50.656;7.188;2023-08-24T17:38:27;21.10;99.90
9939;DHT22;5008;50.656;7.188;2023-08-24T17:40:59;21.10;99.90
9939;DHT22;5008;50.656;7.188;2023-08-24T17:43:30;21.10;99.90
9939;DHT22;5008;50.656;7.188;2023-08-24T17:45:58;21.00;99.90
9939;DHT22;5008;50.656;7.188;2023-08-24T17:48:25;21.10;99.90
9939;DHT22;5008;50.656;7.188;2023-08-24T17:50:53;21.10;99.90
9939;DHT22;5008;50.656;7.188;2023-08-24T17:53:20;21.10;99.90
9939;DHT22;5008;50.656;7.188;2023-08-24T17:55:52;21.10;99.90
9939;DHT22;5008;50.656;7.188;2023-08-24T17:58:19;21.20;99.90
9939;DHT22;5008;50.656;7.188;2023-08-24T18:00:47;21.20;99.90
9939;DHT22;5008;50.656;7.188;2023-08-24T18:03:14;21.20;99.90
9939;DHT22;5008;50.656;7.188;2023-08-24T18:05:41;21.20;99.90
9939;DHT22;5008;50.656;7.188;2023-08-24T18:08:09;21.10;99.90
9939;DHT22;5008;50.656;7.188;2023-08-24T18:10:36;21.10;99.90
9939;DHT22;5008;50.656;7.188;2023-08-24T18:13:03;21.10;99.90
9939;DHT22;5008;50.656;7.188;2023-08-24T18:15:33;21.10;99.90
9939;DHT22;5008;50.656;7.188;2023-08-24T18:18:02;21.10;99.90
9939;DHT22;5008;50.656;7.188;2023-08-24T18:20:30;21.00;99.90
9939;DHT22;5008;50.656;7.188;2023-08-24T18:22:57;21.00;99.90
9939;DHT22;5008;50.656;7.188;2023-08-24T18:25:25;21.00;99.90
9939;DHT22;5008;50.656;7.188;2023-08-24T18:27:52;21.00;99.90
9939;DHT22;5008;50.656;7.188;2023-08-24T18:30:20;21.00;99.90
9939;DHT22;5008;50.656;7.188;2023-08-24T18:32:46;21.00;99.90
9939;DHT22;5008;50.656;7.188;2023-08-24T18:35:15;21.00;99.90
9939;DHT22;5008;50.656;7.188;2023-08-24T18:37:41;21.00;99.90
9939;DHT22;5008;50.656;7.188;2023-08-24T18:40:09;21.00;99.90
9939;DHT22;5008;50.656;7.188;2023-08-24T18:42:35;20.80;99.90
9939;DHT22;5008;50.656;7.188;2023-08-24T18:45:03;20.80;99.90
9939;DHT22;5008;50.656;7.188;2023-08-24T18:47:30;20.80;99.90
9939;DHT22;5008;50.656;7.188;2023-08-24T18:49:57;20.80;99.90
9939;DHT22;5008;50.656;7.188;2023-08-24T18:52:26;20.80;99.90
9939;DHT22;5008;50.656;7.188;2023-08-24T18:54:53;20.70;99.90
9939;DHT22;5008;50.656;7.188;2023-08-24T18:57:20;20.60;99.90
9939;DHT22;5008;50.656;7.188;2023-08-24T18:59:47;20.60;99.90
9939;DHT22;5008;50.656;7.188;2023-08-24T19:02:13;20.50;99.90
9939;DHT22;5008;50.656;7.188;2023-08-24T19:04:43;20.50;99.90
9939;DHT22;5008;50.656;7.188;2023-08-24T19:07:10;20.50;99.90
9939;DHT22;5008;50.656;7.188;2023-08-24T19:09:38;20.50;99.90
9939;DHT22;5008;50.656;7.188;2023-08-24T19:12:06;20.50;99.90
9939;DHT22;5008;50.656;7.188;2023-08-24T19:14:33;20.50;99.90
9939;DHT22;5008;50.656;7.188;2023-08-24T19:17:01;20.50;99.90
9939;DHT22;5008;50.656;7.188;2023-08-24T19:19:28;20.40;99.90
9939;DHT22;5008;50.656;7.188;2023-08-24T19:21:54;20.40;99.90
9939;DHT22;5008;50.656;7.188;2023-08-24T19:24:21;20.30;99.90
9939;DHT22;5008;50.656;7.188;2023-08-24T19:26:50;20.30;99.90
9939;DHT22;5008;50.656;7.188;2023-08-24T19:29:17;20.30;99.90
9939;DHT22;5008;50.656;7.188;2023-08-24T19:31:44;20.30;99.90
9939;DHT22;5008;50.656;7.188;2023-08-24T19:34:11;20.30;99.90
9939;DHT22;5008;50.656;7.188;2023-08-24T19:36:37;20.30;99.90
9939;DHT22;5008;50.656;7.188;2023-08-24T19:39:04;20.30;99.90
9939;DHT22;5008;50.656;7.188;2023-08-24T19:41:31;20.30;99.90
9939;DHT22;5008;50.656;7.188;2023-08-24T19:43:59;20.30;99.90
9939;DHT22;5008;50.656;7.188;2023-08-24T19:46:26;20.20;99.90
9939;DHT22;5008;50.656;7.188;2023-08-24T19:48:54;20.20;99.90
9939;DHT22;5008;50.656;7.188;2023-08-24T19:51:21;20.30;99.90
9939;DHT22;5008;50.656;7.188;2023-08-24T19:53:48;20.30;99.90
9939;DHT22;5008;50.656;7.188;2023-08-24T19:56:15;20.30;99.90
9939;DHT22;5008;50.656;7.188;2023-08-24T19:58:41;20.30;99.90
9939;DHT22;5008;50.656;7.188;2023-08-24T20:01:10;20.20;99.90
9939;DHT22;5008;50.656;7.188;2023-08-24T20:03:36;20.30;99.90
9939;DHT22;5008;50.656;7.188;2023-08-24T20:06:17;20.30;99.90
9939;DHT22;5008;50.656;7.188;2023-08-24T20:08:44;20.20;99.90